Time;durP1;ratioP1;P1;durP2;ratioP2;P2;SDS_P1;SDS_P2;PMS_P1;PMS_P2;Temp;Humidity;BMP_temperature;BMP_pressure;BME280_temperature;BME280_humidity;BME280_pressure;Samples;Min_cycle;Max_cycle;Signal;HPM_P1;HPM_P2
2024/01/16 00:00:34;;;;;;;12.27;1.20;;;-0.70;79.40;;;;;;5043011;28;20045;-73
2024/01/16 00:03:00;;;;;;;10.07;1.43;;;-0.70;79.40;;;;;;5037067;28;20416;-72
2024/01/16 00:05:25;;;;;;;13.13;1.40;;;-0.70;79.50;;;;;;5039542;28;20417;-72
2024/01/16 00:07:51;;;;;;;9.77;0.80;;;-0.70;79.30;;;;;;5031838;28;20117;-75
2024/01/16 00:10:17;;;;;;;7.90;0.70;;;-0.70;79.00;;;;;;5053152;28;20044;-73
2024/01/16 00:12:43;;;;;;;8.60;0.80;;;-0.60;78.70;;;;;;5048888;28;20127;-73
2024/01/16 00:15:09;;;;;;;8.33;1.07;;;-0.60;78.40;;;;;;5016268;28;20046;-73
2024/01/16 00:17:35;;;;;;;7.60;0.50;;;-0.60;78.10;;;;;;5037121;28;20132;-73
2024/01/16 00:20:01;;;;;;;4.37;0.63;;;-0.60;78.20;;;;;;5043876;28;20064;-72
2024/01/16 00:22:27;;;;;;;5.30;0.60;;;-0.60;78.50;;;;;;5027350;28;20123;-75
2024/01/16 00:24:53;;;;;;;7.10;0.57;;;-0.70;78.60;;;;;;5028226;28;20038;-73
2024/01/16 00:27:18;;;;;;;3.77;0.67;;;-0.70;78.70;;;;;;5043052;28;20380;-73
2024/01/16 00:29:44;;;;;;;6.67;0.70;;;-0.70;78.70;;;;;;5033258;28;20056;-73
2024/01/16 00:32:10;;;;;;;4.80;0.43;;;-0.70;78.80;;;;;;5050383;28;20053;-73
2024/01/16 00:34:36;;;;;;;6.23;0.77;;;-0.70;78.80;;;;;;5027300;28;20053;-73
2024/01/16 00:37:02;;;;;;;6.47;0.80;;;-0.80;78.70;;;;;;5047294;28;20098;-74
2024/01/16 00:39:27;;;;;;;5.50;0.70;;;-0.80;78.80;;;;;;5032186;28;20057;-73
2024/01/16 00:41:53;;;;;;;4.60;0.70;;;-0.90;78.90;;;;;;5042834;28;20250;-73
2024/01/16 00:44:18;;;;;;;8.23;0.50;;;-0.90;78.80;;;;;;5044035;28;20045;-73
2024/01/16 00:46:44;;;;;;;10.63;0.80;;;-0.90;78.90;;;;;;5010752;28;20037;-73
2024/01/16 00:49:10;;;;;;;7.17;0.90;;;-0.90;79.00;;;;;;5028505;28;20045;-75
2024/01/16 00:51:36;;;;;;;6.13;0.60;;;-0.90;79.00;;;;;;5043924;28;20049;-73
2024/01/16 00:54:01;;;;;;;6.23;0.73;;;-0.90;79.10;;;;;;5038534;28;20402;-75
2024/01/16 00:56:27;;;;;;;9.20;0.90;;;-0.90;79.30;;;;;;5032121;28;20045;-76
2024/01/16 00:58:56;;;;;;;6.47;0.90;;;-0.90;79.60;;;;;;5028650;28;20160;-71
2024/01/16 01:01:22;;;;;;;9.27;0.77;;;-0.90;79.60;;;;;;5031661;28;20053;-72
2024/01/16 01:03:48;;;;;;;9.30;1.13;;;-0.90;79.70;;;;;;5046372;28;20886;-71
2024/01/16 01:06:14;;;;;;;10.73;1.37;;;-0.90;79.80;;;;;;5028568;28;20037;-71
2024/01/16 01:08:40;;;;;;;9.13;1.20;;;-0.90;79.90;;;;;;5047144;28;20076;-72
2024/01/16 01:11:05;;;;;;;15.30;1.70;;;-0.90;80.00;;;;;;5046980;28;20041;-72
2024/01/16 01:13:31;;;;;;;8.73;1.33;;;-0.90;80.00;;;;;;5029471;28;20056;-72
2024/01/16 01:15:57;;;;;;;15.83;1.87;;;-0.90;80.10;;;;;;5028723;28;20087;-72
2024/01/16 01:18:23;;;;;;;11.40;1.57;;;-0.90;80.10;;;;;;5028661;28;20076;-72
2024/01/16 01:20:49;;;;;;;14.20;1.80;;;-0.90;80.10;;;;;;5044676;28;20056;-71
2024/01/16 01:23:14;;;;;;;10.43;1.87;;;-0.90;80.10;;;;;;5043887;28;20049;-72
2024/01/16 01:25:40;;;;;;;16.00;1.93;;;-0.90;80.00;;;;;;5035124;28;20060;-72
2024/01/16 01:28:06;;;;;;;11.83;1.30;;;-0.90;80.00;;;;;;5012432;28;20252;-72
2024/01/16 01:30:32;;;;;;;10.50;2.03;;;-0.90;79.90;;;;;;5027840;28;20044;-72
2024/01/16 01:32:57;;;;;;;13.20;1.50;;;-0.90;79.80;;;;;;5045134;28;20049;-72
2024/01/16 01:35:23;;;;;;;11.50;2.07;;;-0.90;79.70;;;;;;5042512;28;20049;-73
2024/01/16 01:37:49;;;;;;;8.57;1.30;;;-0.90;79.30;;;;;;5046868;28;20059;-72
2024/01/16 01:40:15;;;;;;;9.80;0.80;;;-0.80;78.60;;;;;;5046241;28;20037;-72
2024/01/16 01:42:44;;;;;;;5.90;0.70;;;-0.80;78.60;;;;;;5049490;28;20225;-73
2024/01/16 01:45:11;;;;;;;10.97;0.50;;;-0.80;79.20;;;;;;5044836;28;20052;-72
2024/01/16 01:47:42;;;;;;;7.77;0.80;;;-0.80;80.30;;;;;;5045919;28;20049;-72
2024/01/16 01:50:08;;;;;;;11.02;1.02;;;-0.70;80.90;;;;;;5026753;28;20583;-72
2024/01/16 01:52:35;;;;;;;6.23;0.83;;;-0.70;81.20;;;;;;5018563;28;20057;-72
2024/01/16 01:55:03;;;;;;;7.70;1.40;;;-0.70;81.40;;;;;;5034849;28;20131;-73
2024/01/16 01:57:29;;;;;;;9.43;1.00;;;-0.80;81.70;;;;;;5034349;28;20955;-71
2024/01/16 01:59:56;;;;;;;12.07;1.20;;;-0.80;81.80;;;;;;5027840;28;20041;-72
2024/01/16 02:02:22;;;;;;;9.37;1.03;;;-0.90;81.80;;;;;;5036527;28;20064;-73
2024/01/16 02:04:48;;;;;;;9.90;1.30;;;-0.90;81.90;;;;;;5008613;28;20037;-73
2024/01/16 02:07:15;;;;;;;7.33;0.87;;;-1.00;81.90;;;;;;5042798;28;20048;-72
2024/01/16 02:09:41;;;;;;;9.10;0.77;;;-1.00;82.10;;;;;;5045901;28;20059;-72
2024/01/16 02:12:07;;;;;;;7.67;0.90;;;-1.00;82.10;;;;;;5037741;28;20049;-72
2024/01/16 02:14:33;;;;;;;5.87;0.90;;;-1.00;82.10;;;;;;5026139;28;20119;-72
2024/01/16 02:16:58;;;;;;;12.13;1.20;;;-1.00;82.20;;;;;;5025125;28;20408;-72
2024/01/16 02:19:25;;;;;;;10.10;1.23;;;-1.10;82.20;;;;;;5007956;28;20273;-72
2024/01/16 02:21:57;;;;;;;9.77;1.10;;;-1.10;82.00;;;;;;5038740;28;20049;-72
2024/01/16 02:24:23;;;;;;;9.17;1.13;;;-1.10;82.00;;;;;;5010802;28;20060;-72
2024/01/16 02:26:49;;;;;;;13.23;1.80;;;-1.10;81.80;;;;;;5006745;28;20492;-72
2024/01/16 02:29:16;;;;;;;15.37;1.47;;;-1.10;81.60;;;;;;5049319;28;20831;-72
2024/01/16 02:31:42;;;;;;;16.13;1.87;;;-1.00;81.50;;;;;;5006560;28;20045;-72
2024/01/16 02:34:08;;;;;;;13.67;1.47;;;-1.00;81.20;;;;;;5027271;28;20041;-71
2024/01/16 02:36:34;;;;;;;15.90;1.50;;;-1.00;81.10;;;;;;5035837;28;20049;-74
2024/01/16 02:39:00;;;;;;;11.83;1.70;;;-0.90;81.00;;;;;;5040446;28;20045;-76
2024/01/16 02:41:26;;;;;;;14.27;1.67;;;-0.90;81.10;;;;;;5024576;28;20044;-75
2024/01/16 02:43:52;;;;;;;8.33;1.03;;;-0.80;81.10;;;;;;5035829;28;20086;-74
2024/01/16 02:46:18;;;;;;;10.47;1.60;;;-0.90;81.10;;;;;;5044832;28;20040;-74
2024/01/16 02:48:44;;;;;;;14.53;1.60;;;-0.90;81.20;;;;;;5016452;28;20121;-74
2024/01/16 02:51:10;;;;;;;13.40;1.20;;;-0.90;81.30;;;;;;4997500;28;20159;-74
2024/01/16 02:53:36;;;;;;;6.43;0.90;;;-0.90;81.30;;;;;;5043099;28;20068;-74
2024/01/16 02:56:02;;;;;;;12.97;1.00;;;-1.00;81.30;;;;;;5027138;28;20045;-75
2024/01/16 02:58:28;;;;;;;10.93;1.17;;;-1.00;81.40;;;;;;5045372;28;20577;-75
2024/01/16 03:00:54;;;;;;;11.67;1.27;;;-1.00;81.40;;;;;;5014925;28;20204;-75
2024/01/16 03:03:20;;;;;;;8.70;1.37;;;-1.10;81.50;;;;;;5027438;28;20049;-74
2024/01/16 03:05:49;;;;;;;8.07;0.97;;;-1.10;81.50;;;;;;5026973;28;20566;-75
2024/01/16 03:08:15;;;;;;;10.43;1.10;;;-1.10;81.60;;;;;;5044868;28;20552;-75
2024/01/16 03:10:41;;;;;;;9.37;1.20;;;-1.10;81.50;;;;;;5044254;28;20064;-74
2024/01/16 03:13:07;;;;;;;11.67;1.30;;;-1.20;81.60;;;;;;5045557;28;20045;-76
2024/01/16 03:15:32;;;;;;;12.93;1.30;;;-1.20;81.50;;;;;;5035572;28;20445;-76
2024/01/16 03:17:59;;;;;;;13.37;1.57;;;-1.20;81.50;;;;;;5000261;28;20045;-75
2024/01/16 03:20:26;;;;;;;16.23;1.50;;;-1.20;81.40;;;;;;5026575;28;20496;-75
2024/01/16 03:22:51;;;;;;;9.50;1.70;;;-1.20;81.20;;;;;;5045228;28;20045;-74
2024/01/16 03:25:18;;;;;;;11.77;1.63;;;-1.10;81.10;;;;;;5030320;28;20099;-74
2024/01/16 03:27:44;;;;;;;17.00;1.63;;;-1.10;81.00;;;;;;5016448;28;20144;-74
2024/01/16 03:30:10;;;;;;;13.30;1.40;;;-1.20;80.80;;;;;;5032408;28;20577;-72
2024/01/16 03:32:37;;;;;;;12.80;1.73;;;-1.20;80.70;;;;;;5045916;28;20055;-73
2024/01/16 03:35:03;;;;;;;9.10;1.23;;;-1.20;80.50;;;;;;5007496;28;20045;-72
2024/01/16 03:37:29;;;;;;;9.60;1.70;;;-1.20;80.30;;;;;;5040269;28;20049;-72
2024/01/16 03:39:56;;;;;;;13.30;1.37;;;-1.20;80.20;;;;;;5045823;28;20060;-72
2024/01/16 03:42:22;;;;;;;17.73;2.00;;;-1.20;80.10;;;;;;5033080;28;20496;-72
2024/01/16 03:44:49;;;;;;;10.37;1.47;;;-1.30;80.00;;;;;;5063196;28;20048;-72
2024/01/16 03:47:15;;;;;;;13.63;1.77;;;-1.20;79.70;;;;;;5026459;28;20674;-72
2024/01/16 03:49:41;;;;;;;14.13;1.60;;;-1.10;79.60;;;;;;5028291;28;20187;-72
2024/01/16 03:52:06;;;;;;;12.07;1.77;;;-1.10;79.30;;;;;;5026752;28;20052;-72
2024/01/16 03:54:32;;;;;;;12.53;1.47;;;-1.10;79.20;;;;;;5018515;28;20400;-73
2024/01/16 03:56:58;;;;;;;11.57;1.47;;;-1.10;79.10;;;;;;5040713;28;20041;-72
2024/01/16 03:59:23;;;;;;;8.80;1.40;;;-1.10;79.00;;;;;;5026495;28;20069;-72
2024/01/16 04:01:49;;;;;;;13.73;1.77;;;-1.10;78.70;;;;;;5028781;28;20336;-72
2024/01/16 04:04:16;;;;;;;17.10;1.70;;;-1.10;78.70;;;;;;5019107;28;20495;-72
2024/01/16 04:06:42;;;;;;;13.37;1.40;;;-1.10;78.60;;;;;;5011683;28;20046;-72
2024/01/16 04:09:09;;;;;;;14.60;1.53;;;-1.10;78.50;;;;;;5027480;28;20068;-72
2024/01/16 04:11:35;;;;;;;11.17;1.60;;;-1.10;78.40;;;;;;5025000;28;20056;-72
2024/01/16 04:14:01;;;;;;;17.03;1.63;;;-1.10;78.10;;;;;;5026700;28;20045;-71
2024/01/16 04:16:27;;;;;;;17.30;1.57;;;-1.00;78.00;;;;;;5017219;28;20807;-73
2024/01/16 04:18:53;;;;;;;12.83;1.80;;;-1.00;78.10;;;;;;5022913;28;20053;-72
2024/01/16 04:21:19;;;;;;;16.33;1.40;;;-1.00;78.00;;;;;;5006927;28;20045;-72
2024/01/16 04:23:45;;;;;;;11.00;1.30;;;-1.00;77.90;;;;;;5007257;28;20061;-72
2024/01/16 04:26:11;;;;;;;21.60;1.50;;;-0.90;77.80;;;;;;5022333;28;20037;-72
2024/01/16 04:28:37;;;;;;;13.23;1.97;;;-0.90;77.90;;;;;;5026121;28;20088;-72
2024/01/16 04:31:03;;;;;;;8.23;1.50;;;-0.90;78.10;;;;;;5033381;28;20037;-72
2024/01/16 04:33:29;;;;;;;13.33;1.43;;;-0.90;78.10;;;;;;5026454;28;20053;-72
2024/01/16 04:35:55;;;;;;;13.17;1.57;;;-0.90;78.10;;;;;;5007030;28;20060;-71
2024/01/16 04:38:21;;;;;;;13.83;1.77;;;-0.90;78.10;;;;;;5027444;28;20049;-71
2024/01/16 04:40:46;;;;;;;15.47;1.70;;;-0.80;78.20;;;;;;5019649;28;20386;-72
2024/01/16 04:43:12;;;;;;;10.23;1.63;;;-0.90;78.20;;;;;;5033824;28;20556;-72
2024/01/16 04:45:38;;;;;;;13.87;1.57;;;-0.80;78.20;;;;;;5013753;28;20576;-72
2024/01/16 04:48:04;;;;;;;14.57;1.90;;;-0.80;78.20;;;;;;5011198;28;20072;-72
2024/01/16 04:50:32;;;;;;;10.10;1.47;;;-0.70;78.30;;;;;;5021939;28;20052;-71
2024/01/16 04:53:01;;;;;;;17.70;1.90;;;-0.70;78.40;;;;;;5014557;28;20045;-71
2024/01/16 04:55:27;;;;;;;16.57;1.57;;;-0.70;78.60;;;;;;5031117;28;20050;-72
2024/01/16 04:57:54;;;;;;;14.77;1.50;;;-0.70;78.60;;;;;;5028017;28;20045;-72
2024/01/16 05:00:20;;;;;;;15.23;1.80;;;-0.60;78.60;;;;;;5018468;28;20144;-72
2024/01/16 05:02:46;;;;;;;13.93;1.77;;;-0.60;78.50;;;;;;5021610;28;20095;-72
2024/01/16 05:05:13;;;;;;;13.50;1.80;;;-0.60;78.50;;;;;;5023393;28;20052;-72
2024/01/16 05:07:39;;;;;;;14.13;2.00;;;-0.60;78.50;;;;;;5022560;28;20124;-73
2024/01/16 05:10:06;;;;;;;8.73;1.27;;;-0.60;78.50;;;;;;5035219;28;20152;-72
2024/01/16 05:12:32;;;;;;;14.43;1.60;;;-0.60;78.60;;;;;;5026684;28;20053;-72
2024/01/16 05:14:58;;;;;;;19.00;2.10;;;-0.70;78.60;;;;;;5042521;28;20075;-71
2024/01/16 05:17:23;;;;;;;14.30;2.03;;;-0.70;78.70;;;;;;5036213;28;20140;-72
2024/01/16 05:19:49;;;;;;;10.57;2.13;;;-0.70;78.80;;;;;;5039085;28;20049;-72
2024/01/16 05:22:15;;;;;;;13.73;2.07;;;-0.70;78.90;;;;;;5035705;28;20517;-73
2024/01/16 05:24:41;;;;;;;11.30;2.00;;;-0.70;79.00;;;;;;5018822;28;20064;-73
2024/01/16 05:27:07;;;;;;;14.63;1.93;;;-0.70;79.20;;;;;;5032691;28;20054;-72
2024/01/16 05:29:32;;;;;;;18.57;1.87;;;-0.60;79.40;;;;;;5032869;28;20041;-73
2024/01/16 05:31:58;;;;;;;17.70;2.30;;;-0.60;79.70;;;;;;5041081;28;20079;-73
2024/01/16 05:34:24;;;;;;;15.50;2.00;;;-0.60;80.10;;;;;;5042369;28;20052;-73
2024/01/16 05:36:50;;;;;;;15.77;1.77;;;-0.70;80.70;;;;;;5042636;28;20194;-73
2024/01/16 05:39:17;;;;;;;16.87;2.33;;;-0.70;81.50;;;;;;5042401;28;20516;-73
2024/01/16 05:41:42;;;;;;;13.87;1.63;;;-0.70;81.90;;;;;;5023248;28;20590;-72
2024/01/16 05:44:08;;;;;;;12.77;1.87;;;-0.70;82.10;;;;;;5045077;28;20052;-73
2024/01/16 05:46:34;;;;;;;14.57;1.50;;;-0.70;82.20;;;;;;5040791;28;20048;-73
2024/01/16 05:48:59;;;;;;;18.23;2.07;;;-0.70;82.20;;;;;;5043287;28;20049;-73
2024/01/16 05:51:27;;;;;;;18.30;2.17;;;-0.70;82.30;;;;;;5023800;28;20477;-73
2024/01/16 05:53:53;;;;;;;16.57;1.83;;;-0.70;82.30;;;;;;5037104;28;20049;-73
2024/01/16 05:56:19;;;;;;;16.50;2.23;;;-0.70;82.40;;;;;;5037716;28;20422;-72
2024/01/16 05:58:44;;;;;;;18.53;2.27;;;-0.70;82.40;;;;;;5031556;28;20114;-72
2024/01/16 06:01:13;;;;;;;19.77;2.50;;;-0.70;82.30;;;;;;5041135;28;20084;-73
2024/01/16 06:03:39;;;;;;;23.37;2.10;;;-0.80;82.20;;;;;;5024743;28;20053;-72
2024/01/16 06:06:07;;;;;;;9.73;1.50;;;-0.80;82.20;;;;;;5030086;28;20056;-73
2024/01/16 06:08:33;;;;;;;13.30;2.17;;;-0.90;82.10;;;;;;5038793;28;20063;-72
2024/01/16 06:10:58;;;;;;;15.40;2.10;;;-0.90;82.00;;;;;;5007771;28;20492;-72
2024/01/16 06:13:24;;;;;;;16.43;1.70;;;-0.90;82.00;;;;;;5044987;28;20114;-73
2024/01/16 06:15:50;;;;;;;8.07;1.13;;;-0.90;81.80;;;;;;5057247;28;20393;-74
2024/01/16 06:18:15;;;;;;;14.00;2.10;;;-0.90;81.70;;;;;;5045618;28;20060;-73
2024/01/16 06:20:41;;;;;;;13.07;1.83;;;-0.90;81.50;;;;;;5048727;28;20052;-73
2024/01/16 06:23:07;;;;;;;12.67;1.53;;;-0.90;81.40;;;;;;5043372;28;20095;-72
2024/01/16 06:25:32;;;;;;;15.97;1.80;;;-0.90;81.20;;;;;;5027237;28;20480;-72
2024/01/16 06:27:58;;;;;;;11.50;1.80;;;-0.90;81.10;;;;;;5038157;28;20036;-72
2024/01/16 06:30:24;;;;;;;12.10;1.13;;;-0.90;81.00;;;;;;5054153;28;20075;-72
2024/01/16 06:32:49;;;;;;;18.13;1.70;;;-0.90;80.80;;;;;;5017867;28;20037;-72
2024/01/16 06:35:16;;;;;;;15.07;1.70;;;-0.90;80.80;;;;;;5033559;28;20055;-72
2024/01/16 06:37:42;;;;;;;11.87;1.60;;;-0.90;80.70;;;;;;5022336;28;20052;-73
2024/01/16 06:40:09;;;;;;;14.07;1.60;;;-0.90;80.70;;;;;;5036369;28;20477;-73
2024/01/16 06:42:35;;;;;;;10.00;1.40;;;-1.00;80.60;;;;;;5053295;28;20403;-75
2024/01/16 06:45:02;;;;;;;12.63;1.60;;;-0.90;80.50;;;;;;5050110;28;20555;-73
2024/01/16 06:47:28;;;;;;;14.83;1.53;;;-0.90;80.40;;;;;;5033981;28;20496;-73
2024/01/16 06:49:54;;;;;;;14.40;1.83;;;-1.00;80.50;;;;;;5031378;28;20165;-72
2024/01/16 06:52:19;;;;;;;16.40;1.93;;;-1.00;80.40;;;;;;5043730;28;20075;-73
2024/01/16 06:54:45;;;;;;;14.03;1.93;;;-0.90;80.30;;;;;;5026105;28;20417;-72
2024/01/16 06:57:11;;;;;;;12.57;1.60;;;-0.90;80.30;;;;;;5040417;28;20480;-73
2024/01/16 06:59:36;;;;;;;10.03;1.80;;;-0.90;80.10;;;;;;5038706;28;20048;-73
2024/01/16 07:02:03;;;;;;;17.07;2.17;;;-0.90;80.10;;;;;;5026355;28;20052;-73
2024/01/16 07:04:29;;;;;;;15.67;2.00;;;-0.90;80.10;;;;;;5044225;28;20049;-72
2024/01/16 07:06:55;;;;;;;18.50;2.20;;;-0.90;80.20;;;;;;5042110;28;20388;-72
2024/01/16 07:09:20;;;;;;;16.27;1.70;;;-1.00;80.20;;;;;;5031880;28;20052;-72
2024/01/16 07:11:47;;;;;;;8.93;1.87;;;-1.00;80.30;;;;;;5047085;28;20045;-73
2024/01/16 07:14:13;;;;;;;17.07;2.27;;;-1.00;80.40;;;;;;5026530;28;20490;-72
2024/01/16 07:16:39;;;;;;;13.50;2.43;;;-1.10;80.40;;;;;;5024094;28;20052;-72
2024/01/16 07:19:05;;;;;;;13.40;2.17;;;-1.10;80.40;;;;;;5042336;28;20401;-72
2024/01/16 07:21:30;;;;;;;19.20;2.13;;;-1.10;80.50;;;;;;5028987;28;20044;-73
2024/01/16 07:23:56;;;;;;;19.63;3.20;;;-1.10;80.50;;;;;;5045384;28;20056;-72
2024/01/16 07:26:24;;;;;;;20.67;2.33;;;-1.10;80.50;;;;;;5040882;28;20042;-73
2024/01/16 07:28:49;;;;;;;12.20;1.83;;;-1.10;80.60;;;;;;5002209;28;20502;-72
2024/01/16 07:31:19;;;;;;;11.47;1.87;;;-1.10;80.70;;;;;;5048877;28;20049;-72
2024/01/16 07:33:45;;;;;;;13.33;1.97;;;-1.10;80.70;;;;;;5045045;28;20059;-72
2024/01/16 07:36:11;;;;;;;12.77;1.87;;;-1.10;80.70;;;;;;5030973;28;20040;-72
2024/01/16 07:38:37;;;;;;;15.97;2.20;;;-1.10;80.60;;;;;;5042657;28;20045;-73
2024/01/16 07:41:04;;;;;;;15.47;2.50;;;-1.10;80.70;;;;;;5048738;28;20136;-72
2024/01/16 07:43:29;;;;;;;17.53;2.20;;;-1.10;80.70;;;;;;5047149;28;20049;-73
2024/01/16 07:45:55;;;;;;;13.83;2.20;;;-1.10;80.70;;;;;;5030108;28;20049;-73
2024/01/16 07:48:22;;;;;;;10.63;1.60;;;-1.10;80.70;;;;;;5016449;28;20515;-72
2024/01/16 07:50:48;;;;;;;10.43;1.80;;;-1.10;80.70;;;;;;5033694;28;20057;-73
2024/01/16 07:53:15;;;;;;;12.77;2.00;;;-1.10;80.70;;;;;;5025513;28;20052;-72
2024/01/16 07:55:41;;;;;;;20.13;1.90;;;-1.10;80.60;;;;;;5045857;28;20049;-73
2024/01/16 07:58:07;;;;;;;13.33;2.20;;;-1.10;80.70;;;;;;5011240;28;20042;-72
2024/01/16 08:00:32;;;;;;;14.13;1.73;;;-1.10;80.70;;;;;;5029777;28;20061;-73
2024/01/16 08:02:58;;;;;;;13.07;1.60;;;-1.10;80.70;;;;;;5021802;28;20052;-73
2024/01/16 08:05:27;;;;;;;6.67;1.63;;;-1.00;80.70;;;;;;5040813;28;20548;-72
2024/01/16 08:07:53;;;;;;;9.97;1.30;;;-1.00;80.70;;;;;;5030273;28;20050;-72
2024/01/16 08:10:19;;;;;;;13.57;1.70;;;-1.00;80.70;;;;;;5035195;28;20485;-73
2024/01/16 08:12:45;;;;;;;11.47;1.70;;;-1.00;80.70;;;;;;5031252;28;20050;-73
2024/01/16 08:15:11;;;;;;;8.83;1.47;;;-1.00;80.80;;;;;;5015470;28;20346;-73
2024/01/16 08:17:37;;;;;;;8.10;1.27;;;-0.90;80.80;;;;;;5027673;28;20064;-72
2024/01/16 08:20:03;;;;;;;8.53;1.40;;;-0.90;80.90;;;;;;5026732;28;20053;-72
2024/01/16 08:22:29;;;;;;;12.07;1.57;;;-0.80;80.90;;;;;;5041392;28;20503;-72
2024/01/16 08:24:55;;;;;;;10.37;1.77;;;-0.70;81.00;;;;;;5048206;28;20056;-72
2024/01/16 08:27:20;;;;;;;12.83;1.90;;;-0.70;81.20;;;;;;5024890;28;20137;-73
2024/01/16 08:29:49;;;;;;;9.33;1.73;;;-0.60;81.40;;;;;;5032549;28;20080;-73
2024/01/16 08:32:16;;;;;;;12.57;1.67;;;-0.50;81.40;;;;;;5023959;28;20045;-73
2024/01/16 08:34:43;;;;;;;7.93;1.77;;;-0.40;81.30;;;;;;5024613;28;20052;-73
2024/01/16 08:37:09;;;;;;;11.30;1.70;;;-0.40;81.30;;;;;;5025763;28;20087;-73
2024/01/16 08:39:35;;;;;;;11.77;1.90;;;-0.30;81.30;;;;;;5038376;28;20056;-74
2024/01/16 08:42:02;;;;;;;9.80;1.67;;;-0.30;81.40;;;;;;5027536;28;20041;-75
2024/01/16 08:44:28;;;;;;;8.03;1.50;;;-0.20;81.50;;;;;;5040115;28;20045;-72
2024/01/16 08:46:54;;;;;;;13.50;2.60;;;-0.20;81.50;;;;;;5029498;28;20072;-73
2024/01/16 08:49:20;;;;;;;9.87;1.87;;;-0.10;81.60;;;;;;5021150;28;20072;-73
2024/01/16 08:51:46;;;;;;;13.40;2.80;;;-0.10;81.60;;;;;;5013517;28;20100;-74
2024/01/16 08:54:11;;;;;;;14.17;2.70;;;0.00;81.50;;;;;;5026105;28;20052;-74
2024/01/16 08:56:37;;;;;;;10.30;1.90;;;0.00;81.50;;;;;;5018140;28;20041;-73
2024/01/16 08:59:03;;;;;;;8.13;1.53;;;0.00;81.50;;;;;;5019828;28;20095;-76
2024/01/16 09:01:29;;;;;;;9.77;2.17;;;0.00;81.60;;;;;;5035948;28;20057;-75
2024/01/16 09:03:54;;;;;;;12.03;1.90;;;0.00;82.10;;;;;;5038031;28;20048;-75
2024/01/16 09:06:21;;;;;;;8.20;1.53;;;-0.10;82.70;;;;;;5036327;28;20121;-74
2024/01/16 09:08:47;;;;;;;7.80;1.50;;;-0.10;83.00;;;;;;5022631;28;20099;-74
2024/01/16 09:11:12;;;;;;;11.43;1.80;;;-0.20;83.40;;;;;;5020860;28;20045;-75
2024/01/16 09:13:38;;;;;;;20.10;1.77;;;-0.20;83.60;;;;;;5018441;28;20120;-75
2024/01/16 09:16:04;;;;;;;10.20;1.87;;;-0.30;83.80;;;;;;5026115;28;20049;-74
2024/01/16 09:18:30;;;;;;;7.73;1.50;;;-0.30;84.00;;;;;;5043258;28;20071;-75
2024/01/16 09:20:56;;;;;;;9.97;1.47;;;-0.30;84.10;;;;;;5038269;28;20045;-74
2024/01/16 09:23:22;;;;;;;9.00;1.53;;;-0.30;84.10;;;;;;5029700;28;20128;-74
2024/01/16 09:25:48;;;;;;;8.47;1.80;;;-0.30;84.20;;;;;;5045091;28;20156;-74
2024/01/16 09:28:14;;;;;;;13.03;1.77;;;-0.30;84.30;;;;;;5045924;28;20044;-74
2024/01/16 09:30:42;;;;;;;9.40;1.53;;;-0.20;84.30;;;;;;5046003;28;20447;-74
2024/01/16 09:33:10;;;;;;;6.40;1.67;;;-0.20;84.40;;;;;;5011355;28;20048;-74
2024/01/16 09:35:35;;;;;;;7.90;1.23;;;-0.20;84.40;;;;;;5042191;28;20104;-74
2024/01/16 09:38:01;;;;;;;12.03;1.77;;;-0.10;84.40;;;;;;5027646;28;20473;-75
2024/01/16 09:40:27;;;;;;;13.00;1.20;;;-0.10;84.30;;;;;;5042667;28;20047;-75
2024/01/16 09:42:52;;;;;;;8.37;1.63;;;-0.10;84.20;;;;;;5046124;28;20044;-75
2024/01/16 09:45:21;;;;;;;9.20;1.27;;;-0.10;84.10;;;;;;5055106;28;20492;-74
2024/01/16 09:47:50;;;;;;;5.50;1.30;;;-0.10;84.00;;;;;;5058897;28;20045;-74
2024/01/16 09:50:19;;;;;;;9.70;1.67;;;0.00;83.90;;;;;;5041361;28;20480;-74
2024/01/16 09:52:49;;;;;;;8.10;1.23;;;0.00;83.70;;;;;;5060332;28;20135;-75
2024/01/16 09:55:17;;;;;;;10.43;1.43;;;0.00;83.60;;;;;;5038281;28;20048;-75
2024/01/16 09:57:45;;;;;;;8.97;1.40;;;0.00;83.50;;;;;;5061481;28;20060;-74
2024/01/16 10:00:12;;;;;;;7.03;1.80;;;0.00;83.30;;;;;;5034156;28;20036;-74
2024/01/16 10:02:41;;;;;;;7.77;1.10;;;0.00;83.20;;;;;;5032933;28;20048;-74
2024/01/16 10:05:09;;;;;;;11.90;1.43;;;0.00;83.00;;;;;;5034051;28;20102;-75
2024/01/16 10:07:39;;;;;;;6.33;0.97;;;0.00;82.90;;;;;;5047129;28;20595;-74
2024/01/16 10:10:06;;;;;;;7.10;1.30;;;0.00;82.70;;;;;;5042885;28;20049;-75
2024/01/16 10:12:32;;;;;;;3.97;0.90;;;0.10;82.70;;;;;;5019219;28;20049;-74
2024/01/16 10:14:59;;;;;;;6.60;0.90;;;0.20;82.70;;;;;;5044806;28;20049;-74
2024/01/16 10:17:38;;;;;;;10.53;1.20;;;0.20;82.50;;;;;;5038194;28;20052;-76
2024/01/16 10:20:04;;;;;;;6.93;0.90;;;0.20;82.50;;;;;;5039407;28;20041;-74
2024/01/16 10:22:30;;;;;;;8.53;1.30;;;0.20;82.40;;;;;;5028060;28;20059;-74
2024/01/16 10:25:16;;;;;;;7.07;1.00;;;0.20;82.40;;;;;;5058690;28;20044;-74
2024/01/16 10:27:42;;;;;;;8.37;0.97;;;0.20;82.40;;;;;;5056701;28;20056;-74
2024/01/16 10:30:10;;;;;;;10.10;1.30;;;0.20;82.30;;;;;;5031371;28;20179;-75
2024/01/16 10:32:43;;;;;;;7.13;1.37;;;0.20;82.40;;;;;;5050187;28;20044;-75
2024/01/16 10:35:13;;;;;;;2.57;0.53;;;0.20;82.60;;;;;;5037926;28;20060;-75
2024/01/16 10:37:47;;;;;;;6.43;0.87;;;0.20;82.60;;;;;;5045449;28;20044;-74
2024/01/16 10:40:16;;;;;;;7.10;1.23;;;0.20;82.70;;;;;;5033644;28;20484;-74
2024/01/16 10:42:43;;;;;;;7.37;1.17;;;0.20;82.70;;;;;;5034932;28;20079;-74
2024/01/16 10:45:17;;;;;;;9.63;1.63;;;0.10;82.80;;;;;;5053412;28;20581;-75
2024/01/16 10:47:43;;;;;;;3.47;1.10;;;0.10;82.90;;;;;;5059837;28;20048;-74
2024/01/16 10:50:09;;;;;;;8.10;1.00;;;0.10;83.00;;;;;;5051498;28;20458;-74
2024/01/16 10:52:37;;;;;;;4.00;1.20;;;0.10;83.20;;;;;;5039119;28;20131;-74
2024/01/16 10:55:06;;;;;;;8.10;1.50;;;0.10;83.20;;;;;;5018239;28;20451;-74
2024/01/16 10:57:32;;;;;;;8.23;1.57;;;0.20;83.20;;;;;;5044752;28;20094;-74
2024/01/16 11:00:04;;;;;;;6.90;1.57;;;0.20;83.20;;;;;;5051584;28;20219;-74
2024/01/16 11:02:44;;;;;;;5.50;1.63;;;0.10;83.30;;;;;;5044096;28;20056;-75
2024/01/16 11:05:12;;;;;;;8.53;1.50;;;0.20;83.30;;;;;;5036296;28;20511;-75
2024/01/16 11:07:40;;;;;;;8.57;1.80;;;0.20;83.40;;;;;;5036685;28;20041;-75
2024/01/16 11:10:08;;;;;;;12.70;2.47;;;0.20;83.40;;;;;;5014511;28;20080;-74
2024/01/16 11:12:35;;;;;;;9.90;2.27;;;0.10;83.50;;;;;;5044422;28;20479;-74
2024/01/16 11:15:07;;;;;;;9.83;2.57;;;0.10;83.50;;;;;;5057690;28;20125;-73
2024/01/16 11:17:37;;;;;;;7.70;3.13;;;0.20;83.50;;;;;;5051307;28;20621;-74
2024/01/16 11:20:09;;;;;;;8.73;3.30;;;0.20;83.60;;;;;;5057678;28;20103;-74
2024/01/16 11:22:39;;;;;;;12.57;3.60;;;0.20;83.60;;;;;;5038933;28;20153;-74
2024/01/16 11:25:12;;;;;;;7.63;2.83;;;0.20;83.60;;;;;;5047577;28;20070;-74
2024/01/16 11:27:38;;;;;;;8.90;2.97;;;0.20;83.40;;;;;;5057261;28;20052;-74
2024/01/16 11:30:07;;;;;;;8.00;2.50;;;0.20;83.50;;;;;;5026251;28;20048;-74
2024/01/16 11:32:40;;;;;;;5.10;2.37;;;0.20;83.50;;;;;;5025124;28;20135;-75
2024/01/16 11:35:07;;;;;;;12.17;2.10;;;0.30;83.40;;;;;;5044598;28;20138;-75
2024/01/16 11:37:34;;;;;;;6.60;1.93;;;0.30;83.40;;;;;;5026077;28;20450;-74
2024/01/16 11:40:21;;;;;;;8.30;2.20;;;0.40;83.30;;;;;;5042691;28;20065;-75
2024/01/16 11:42:56;;;;;;;6.10;1.97;;;0.30;83.10;;;;;;5030369;28;20068;-74
2024/01/16 11:45:27;;;;;;;7.80;2.10;;;0.30;83.00;;;;;;5040291;28;20289;-75
2024/01/16 11:48:19;;;;;;;9.03;2.40;;;0.30;83.00;;;;;;5061050;28;20044;-75
2024/01/16 11:50:45;;;;;;;7.17;2.50;;;0.30;83.00;;;;;;5040135;28;20063;-73
2024/01/16 11:53:32;;;;;;;9.83;2.57;;;0.20;82.90;;;;;;5053418;28;20143;-73
2024/01/16 11:56:27;;;;;;;8.43;2.30;;;0.20;82.90;;;;;;5045543;28;20052;-73
2024/01/16 11:59:55;;;;;;;9.00;2.27;;;0.20;83.10;;;;;;5027650;28;20487;-73
2024/01/16 12:02:26;;;;;;;9.27;2.37;;;0.20;83.30;;;;;;4973384;28;20129;-75
2024/01/16 12:04:56;;;;;;;6.80;2.27;;;0.20;83.50;;;;;;4975144;28;20141;-73
2024/01/16 12:07:22;;;;;;;6.73;2.50;;;0.20;83.50;;;;;;4991559;28;20060;-73
2024/01/16 12:09:48;;;;;;;5.23;2.70;;;0.20;83.50;;;;;;5029108;28;20056;-73
2024/01/16 12:12:15;;;;;;;8.23;2.20;;;0.20;83.60;;;;;;5052611;28;20059;-75
2024/01/16 12:14:50;;;;;;;8.20;2.43;;;0.20;83.60;;;;;;5051121;28;20136;-73
2024/01/16 12:17:18;;;;;;;10.13;2.23;;;0.20;83.70;;;;;;5047333;28;20605;-73
2024/01/16 12:19:44;;;;;;;6.10;2.30;;;0.20;83.70;;;;;;5049647;28;20057;-73
2024/01/16 12:22:10;;;;;;;10.87;2.30;;;0.20;83.80;;;;;;5058730;28;20052;-73
2024/01/16 12:24:37;;;;;;;8.87;2.10;;;0.10;83.70;;;;;;5058684;28;20411;-73
2024/01/16 12:27:04;;;;;;;11.67;2.33;;;0.10;83.70;;;;;;5061423;28;20040;-75
2024/01/16 12:29:30;;;;;;;11.57;2.40;;;0.10;83.70;;;;;;5059290;28;20057;-74
2024/01/16 12:32:09;;;;;;;7.57;2.10;;;0.10;83.70;;;;;;5036743;28;20067;-73
2024/01/16 12:34:45;;;;;;;7.27;2.03;;;0.10;83.80;;;;;;5027631;28;20065;-74
2024/01/16 12:37:11;;;;;;;8.47;2.00;;;0.20;83.80;;;;;;5054489;28;20137;-74
2024/01/16 12:39:37;;;;;;;6.73;2.03;;;0.20;83.90;;;;;;5058876;28;20048;-73
2024/01/16 12:42:03;;;;;;;10.13;2.20;;;0.20;83.90;;;;;;5050433;28;20514;-74